Time;durP1;ratioP1;P1;durP2;ratioP2;P2;SDS_P1;SDS_P2;PMS_P1;PMS_P2;Temp;Humidity;BMP_temperature;BMP_pressure;BME280_temperature;BME280_humidity;BME280_pressure;Samples;Min_cycle;Max_cycle;Signal;HPM_P1;HPM_P2
2022/09/04 00:02:16;;;;;;;6.85;4.22;;;16.40;99.90;;;;;;5022290;27;88921;-31
2022/09/04 00:05:18;;;;;;;5.45;3.22;;;16.40;99.90;;;;;;4997067;28;90404;-35
2022/09/04 00:08:12;;;;;;;5.43;4.30;;;16.30;99.90;;;;;;5002059;28;90502;-31
2022/09/04 00:10:46;;;;;;;3.25;2.95;;;16.30;99.90;;;;;;5020403;27;89974;-35
2022/09/04 00:13:20;;;;;;;5.25;3.58;;;16.20;99.90;;;;;;5020848;28;89161;-36
2022/09/04 00:15:51;;;;;;;6.25;3.67;;;16.20;99.90;;;;;;5020805;27;90018;-30
2022/09/04 00:18:52;;;;;;;5.53;3.25;;;16.20;99.90;;;;;;5019190;27;90397;-29
2022/09/04 00:21:24;;;;;;;4.18;3.00;;;16.10;99.90;;;;;;4977919;28;90937;-29
2022/09/04 00:23:54;;;;;;;5.05;3.20;;;16.10;99.90;;;;;;5007617;28;90604;-31
2022/09/04 00:27:17;;;;;;;3.63;3.10;;;16.10;99.90;;;;;;5020924;27;90299;-32
2022/09/04 00:30:00;;;;;;;3.58;3.38;;;16.00;99.90;;;;;;4978903;28;90590;-30
2022/09/04 00:32:36;;;;;;;4.28;3.88;;;16.00;99.90;;;;;;4969393;28;89548;-29
2022/09/04 00:35:01;;;;;;;3.90;3.47;;;16.00;99.90;;;;;;5037656;22;88430;-29
2022/09/04 00:37:35;;;;;;;3.80;3.50;;;15.90;99.90;;;;;;5020355;27;90685;-32
2022/09/04 00:40:18;;;;;;;4.70;2.75;;;15.90;99.90;;;;;;5021276;27;90437;-29
2022/09/04 00:43:02;;;;;;;4.10;3.83;;;15.90;99.90;;;;;;5019752;27;91678;-31
2022/09/04 00:45:41;;;;;;;4.95;4.00;;;15.80;99.90;;;;;;5019705;27;88477;-29
2022/09/04 00:48:21;;;;;;;4.43;3.67;;;15.80;99.90;;;;;;5020485;27;90555;-29
2022/09/04 00:51:14;;;;;;;4.03;3.67;;;15.70;99.90;;;;;;5020412;27;90937;-32
2022/09/04 00:54:22;;;;;;;4.10;3.75;;;15.70;99.90;;;;;;5019145;27;89619;-34
2022/09/04 00:57:25;;;;;;;4.97;3.92;;;15.60;99.90;;;;;;5016876;27;90021;-31
2022/09/04 01:00:15;;;;;;;4.22;3.92;;;15.60;99.90;;;;;;5020233;28;89933;-29
2022/09/04 01:02:57;;;;;;;4.45;3.90;;;15.50;99.90;;;;;;5020040;27;89903;-30
2022/09/04 01:05:58;;;;;;;4.85;4.30;;;15.50;99.90;;;;;;5018100;28;91102;-32
2022/09/04 01:09:01;;;;;;;4.53;4.22;;;15.50;99.90;;;;;;5020490;27;89169;-31
2022/09/04 01:11:43;;;;;;;5.18;3.90;;;15.40;99.90;;;;;;5019168;28;90146;-30
2022/09/04 01:14:28;;;;;;;4.38;3.88;;;15.40;99.90;;;;;;5019439;28;89511;-29
2022/09/04 01:17:04;;;;;;;5.22;4.03;;;15.30;99.90;;;;;;5019009;27;90688;-31
2022/09/04 01:19:56;;;;;;;5.68;4.45;;;15.30;99.90;;;;;;5019335;27;88904;-33
2022/09/04 01:22:55;;;;;;;3.95;3.60;;;15.20;99.90;;;;;;5018765;28;92086;-31
2022/09/04 01:25:52;;;;;;;3.90;3.60;;;15.20;99.90;;;;;;5020274;28;89648;-32
2022/09/04 01:28:49;;;;;;;7.15;4.10;;;15.20;99.90;;;;;;5019275;27;89548;-29
2022/09/04 01:32:04;;;;;;;4.40;4.00;;;15.20;99.90;;;;;;5019233;28;88005;-32
2022/09/04 01:34:58;;;;;;;5.93;4.07;;;15.10;99.90;;;;;;4985376;28;90259;-31
2022/09/04 01:38:05;;;;;;;5.18;4.35;;;15.10;99.90;;;;;;5006808;28;89538;-31
2022/09/04 01:40:56;;;;;;;5.32;4.35;;;15.10;99.90;;;;;;5018863;27;89640;-34
2022/09/04 01:43:22;;;;;;;4.85;4.38;;;15.10;99.90;;;;;;5018590;27;90081;-34
2022/09/04 01:46:03;;;;;;;4.68;4.28;;;15.10;99.90;;;;;;5018103;28;90756;-32
2022/09/04 01:48:54;;;;;;;4.00;3.70;;;15.10;99.90;;;;;;5018677;28;89462;-34
2022/09/04 01:51:22;;;;;;;4.50;4.05;;;15.00;99.90;;;;;;5019194;27;90211;-35
2022/09/04 01:54:06;;;;;;;;;;;15.10;99.90;;;;;;5002498;27;89457;-32
2022/09/04 01:56:41;;;;;;;5.18;4.68;;;15.00;99.90;;;;;;5001217;28;90714;-33
2022/09/04 01:59:32;;;;;;;5.43;4.53;;;14.90;99.90;;;;;;5004847;27;89984;-32
2022/09/04 02:02:12;;;;;;;4.82;3.63;;;14.90;99.90;;;;;;5019490;27;89677;-33
2022/09/04 02:05:01;;;;;;;4.47;3.85;;;14.90;99.90;;;;;;5019780;27;87876;-30
2022/09/04 02:07:37;;;;;;;4.68;3.63;;;15.00;99.90;;;;;;5018684;27;90160;-33
2022/09/04 02:10:28;;;;;;;6.18;4.18;;;14.90;99.90;;;;;;5017763;27;90087;-31
2022/09/04 02:13:21;;;;;;;4.95;4.45;;;14.90;99.90;;;;;;5019274;27;90580;-29
2022/09/04 02:15:57;;;;;;;4.18;3.58;;;14.80;99.90;;;;;;5018881;27;89121;-31
2022/09/04 02:18:43;;;;;;;4.85;4.40;;;14.70;99.90;;;;;;5018234;28;90440;-32
2022/09/04 02:21:31;;;;;;;4.18;3.60;;;14.80;99.90;;;;;;5018452;27;90471;-30
2022/09/04 02:24:24;;;;;;;6.57;4.78;;;14.70;99.90;;;;;;5018772;27;89335;-29
2022/09/04 02:27:06;;;;;;;6.53;4.60;;;14.70;99.90;;;;;;5018846;27;89369;-32
2022/09/04 02:30:09;;;;;;;4.97;4.45;;;14.60;99.90;;;;;;5018961;27;91224;-31
2022/09/04 02:32:46;;;;;;;4.63;4.20;;;14.50;99.90;;;;;;5016923;28;88891;-34
2022/09/04 02:35:25;;;;;;;6.53;5.00;;;14.50;99.90;;;;;;5018333;27;89860;-31
2022/09/04 02:38:07;;;;;;;5.18;4.78;;;14.40;99.90;;;;;;5019042;28;89173;-31
2022/09/04 02:40:38;;;;;;;3.72;3.13;;;14.30;99.90;;;;;;5018788;27;90306;-29
2022/09/04 02:43:31;;;;;;;6.97;4.82;;;14.20;99.90;;;;;;5018856;27;89823;-33
2022/09/04 02:46:26;;;;;;;8.52;4.63;;;14.20;99.90;;;;;;5020621;27;89610;-35
2022/09/04 02:48:52;;;;;;;4.85;4.45;;;14.10;99.90;;;;;;5022265;28;88917;-30
2022/09/04 02:51:37;;;;;;;4.43;4.03;;;14.10;99.90;;;;;;5022111;27;90374;-29
2022/09/04 02:54:24;;;;;;;4.95;4.50;;;14.10;99.90;;;;;;5022428;27;89793;-33
2022/09/04 02:56:59;;;;;;;9.07;4.72;;;14.10;99.90;;;;;;5022859;27;89830;-29
2022/09/04 02:59:43;;;;;;;11.70;5.15;;;14.00;99.90;;;;;;5021605;27;89333;-29
2022/09/04 03:02:30;;;;;;;8.55;4.95;;;14.00;99.90;;;;;;5022402;28;90341;-29
2022/09/04 03:04:59;;;;;;;4.63;4.25;;;14.00;99.90;;;;;;5021949;27;91359;-30
2022/09/04 03:07:32;;;;;;;5.68;5.18;;;13.90;99.90;;;;;;5021283;28;91278;-32
2022/09/04 03:10:14;;;;;;;5.57;5.18;;;13.80;99.90;;;;;;5022190;27;89592;-34
2022/09/04 03:12:55;;;;;;;12.20;4.82;;;13.70;99.90;;;;;;5021166;27;89357;-32
2022/09/04 03:15:47;;;;;;;8.95;4.63;;;13.70;99.90;;;;;;5021595;28;89858;-30
2022/09/04 03:18:33;;;;;;;5.20;4.70;;;13.70;99.90;;;;;;5021448;27;89176;-31
2022/09/04 03:21:08;;;;;;;5.53;4.68;;;13.60;99.90;;;;;;5022303;27;88985;-29
2022/09/04 03:23:56;;;;;;;5.32;4.53;;;13.60;99.90;;;;;;5021040;27;89989;-29
2022/09/04 03:26:43;;;;;;;4.95;3.85;;;13.60;99.90;;;;;;5020917;27;89956;-31
2022/09/04 03:29:11;;;;;;;8.88;5.32;;;13.60;99.90;;;;;;5021919;28;89620;-29
2022/09/04 03:31:37;;;;;;;;;;;13.50;99.90;;;;;;5021951;27;89042;-29
2022/09/04 03:34:18;;;;;;;5.32;4.72;;;13.40;99.90;;;;;;5021999;27;90188;-31
2022/09/04 03:37:32;;;;;;;5.78;5.28;;;13.40;99.90;;;;;;5021230;27;89311;-29
2022/09/04 03:40:17;;;;;;;5.38;4.70;;;13.30;99.90;;;;;;4986120;28;89656;-30
2022/09/04 03:42:51;;;;;;;5.30;4.35;;;13.30;99.90;;;;;;4998300;28;88988;-34
2022/09/04 03:45:26;;;;;;;4.63;4.30;;;13.30;99.90;;;;;;5020702;27;90443;-32
2022/09/04 03:48:01;;;;;;;5.60;5.10;;;13.30;99.90;;;;;;5021030;27;89946;-36
2022/09/04 03:50:49;;;;;;;5.28;4.80;;;13.40;99.90;;;;;;5021308;27;89217;-33
2022/09/04 03:53:42;;;;;;;4.80;4.40;;;13.40;99.90;;;;;;5021876;27;88166;-31
2022/09/04 03:56:29;;;;;;;5.43;4.93;;;13.40;99.90;;;;;;5020921;27;88986;-35
2022/09/04 03:59:07;;;;;;;4.93;4.43;;;13.40;99.90;;;;;;5019825;28;90654;-32
2022/09/04 04:01:40;;;;;;;6.88;6.28;;;13.40;99.90;;;;;;5020954;27;90522;-30
2022/09/04 04:04:47;;;;;;;5.93;5.32;;;13.40;99.90;;;;;;5020964;27;89224;-30
2022/09/04 04:07:18;;;;;;;5.47;4.97;;;13.40;99.90;;;;;;5020548;28;89626;-32
2022/09/04 04:09:56;;;;;;;5.40;4.88;;;13.40;99.90;;;;;;5020458;27;90020;-35
2022/09/04 04:12:41;;;;;;;5.07;4.67;;;13.30;99.90;;;;;;5019829;27;89841;-29
2022/09/04 04:15:28;;;;;;;6.78;5.47;;;13.30;99.90;;;;;;5021498;27;89180;-29
2022/09/04 04:17:56;;;;;;;5.65;4.80;;;13.30;99.90;;;;;;5021416;27;89888;-29
2022/09/04 04:20:43;;;;;;;;;;;13.20;99.90;;;;;;5021811;27;90566;-30
2022/09/04 04:23:36;;;;;;;7.68;5.57;;;13.20;99.90;;;;;;5022106;27;88510;-31
2022/09/04 04:26:12;;;;;;;5.65;4.63;;;13.10;99.90;;;;;;5020599;27;90252;-31
2022/09/04 04:29:07;;;;;;;6.88;5.43;;;13.10;99.90;;;;;;5020837;28;89999;-31
2022/09/04 04:32:09;;;;;;;6.10;5.07;;;13.10;99.90;;;;;;5020874;27;89878;-31
2022/09/04 04:35:12;;;;;;;7.00;5.63;;;13.10;99.90;;;;;;5020481;27;88958;-34
2022/09/04 04:37:59;;;;;;;7.28;5.32;;;13.00;99.90;;;;;;5020414;27;89714;-31
2022/09/04 04:41:01;;;;;;;5.78;5.32;;;13.00;99.90;;;;;;5019946;27;90191;-30
2022/09/04 04:43:53;;;;;;;6.38;5.28;;;12.90;99.90;;;;;;5020487;28;89741;-31
2022/09/04 04:46:53;;;;;;;5.32;4.82;;;12.90;99.90;;;;;;5020119;27;88216;-32
2022/09/04 04:50:14;;;;;;;5.25;4.85;;;12.90;99.90;;;;;;5020145;27;88626;-33
2022/09/04 04:52:52;;;;;;;6.07;5.47;;;12.80;99.90;;;;;;4982754;27;90245;-31
2022/09/04 04:55:20;;;;;;;7.18;5.32;;;12.80;99.90;;;;;;5020011;27;90878;-34
2022/09/04 04:58:11;;;;;;;8.50;6.13;;;12.80;99.90;;;;;;5020466;28;89611;-30
2022/09/04 05:00:44;;;;;;;12.52;5.68;;;12.80;99.90;;;;;;5006513;27;89367;-33
2022/09/04 05:03:23;;;;;;;6.57;5.32;;;12.70;99.90;;;;;;5019053;27;89237;-29
2022/09/04 05:06:16;;;;;;;8.90;6.53;;;12.70;99.90;;;;;;5020150;28;89844;-29
2022/09/04 05:08:54;;;;;;;5.90;5.25;;;12.70;99.90;;;;;;5020594;27;89753;-31
2022/09/04 05:11:33;;;;;;;8.70;5.88;;;12.70;99.90;;;;;;5020352;27;88016;-30
2022/09/04 05:14:24;;;;;;;5.45;5.05;;;12.70;99.90;;;;;;5020101;27;90213;-34
2022/09/04 05:17:14;;;;;;;6.18;5.68;;;12.70;99.90;;;;;;5019756;28;89934;-34
2022/09/04 05:20:17;;;;;;;5.50;5.00;;;12.70;99.90;;;;;;5015078;27;89758;-32
2022/09/04 05:22:45;;;;;;;5.72;5.32;;;12.70;99.90;;;;;;5019915;28;89919;-30
2022/09/04 05:25:23;;;;;;;7.35;5.57;;;12.80;99.90;;;;;;5019540;28;91840;-37
2022/09/04 05:28:04;;;;;;;5.72;5.22;;;12.90;99.90;;;;;;5017774;28;91366;-30
2022/09/04 05:30:48;;;;;;;8.00;5.43;;;13.00;99.90;;;;;;5018059;28;88614;-30
2022/09/04 05:33:35;;;;;;;7.43;5.20;;;13.10;99.90;;;;;;5019333;28;89491;-31
2022/09/04 05:36:15;;;;;;;6.55;5.57;;;13.10;99.90;;;;;;5019670;28;90161;-37
2022/09/04 05:39:16;;;;;;;6.28;5.78;;;13.20;99.90;;;;;;5019336;27;89068;-32
2022/09/04 05:42:03;;;;;;;6.07;5.47;;;13.30;99.90;;;;;;5020266;27;89600;-31
2022/09/04 05:44:29;;;;;;;6.53;5.63;;;13.40;99.90;;;;;;5019915;27;89558;-29
2022/09/04 05:47:23;;;;;;;5.63;4.97;;;13.40;99.90;;;;;;5019681;27;90515;-36
2022/09/04 05:50:07;;;;;;;6.80;5.05;;;13.50;99.90;;;;;;5018938;27;90702;-30
2022/09/04 05:52:57;;;;;;;7.78;6.03;;;13.50;99.90;;;;;;5019165;27;89637;-35
2022/09/04 05:55:47;;;;;;;7.72;6.03;;;13.50;99.90;;;;;;5019117;28;87945;-29
2022/09/04 05:58:43;;;;;;;6.20;4.75;;;13.50;99.90;;;;;;5019277;28;90190;-31
2022/09/04 06:01:15;;;;;;;5.72;5.22;;;13.60;99.90;;;;;;5018935;27;89431;-31
2022/09/04 06:04:05;;;;;;;6.85;5.38;;;13.70;99.90;;;;;;5018910;27;89467;-31
2022/09/04 06:06:52;;;;;;;5.97;5.47;;;13.80;99.90;;;;;;5019418;27;88502;-35
2022/09/04 06:09:41;;;;;;;6.97;6.30;;;13.80;99.90;;;;;;5019439;27;90225;-29
2022/09/04 06:12:22;;;;;;;14.43;6.28;;;13.80;99.90;;;;;;5007023;27;89952;-29
2022/09/04 06:15:26;;;;;;;7.60;6.43;;;13.90;99.90;;;;;;5018709;28;89736;-34
2022/09/04 06:18:15;;;;;;;5.50;5.00;;;13.90;99.90;;;;;;4981441;28;90027;-32
2022/09/04 06:21:02;;;;;;;5.68;5.18;;;14.00;99.90;;;;;;5008472;28;90462;-31
2022/09/04 06:23:49;;;;;;;12.23;5.85;;;14.10;99.90;;;;;;5022501;28;89051;-33
2022/09/04 06:26:28;;;;;;;10.85;5.18;;;14.20;99.90;;;;;;5022459;28;90173;-34
2022/09/04 06:29:12;;;;;;;9.18;5.65;;;14.30;99.90;;;;;;5021988;27;89178;-34
2022/09/04 06:31:55;;;;;;;7.05;5.75;;;14.40;99.90;;;;;;5022244;28;90131;-33
2022/09/04 06:34:30;;;;;;;7.43;6.72;;;14.50;99.90;;;;;;5021665;27;90557;-33
2022/09/04 06:37:12;;;;;;;8.10;5.75;;;14.60;99.90;;;;;;5022398;27;90555;-33
2022/09/04 06:39:59;;;;;;;6.05;4.97;;;14.60;99.90;;;;;;5022081;27;89307;-31
2022/09/04 06:42:50;;;;;;;9.40;5.88;;;14.70;99.90;;;;;;5021857;27;90053;-30
2022/09/04 06:45:24;;;;;;;6.97;6.25;;;14.80;99.90;;;;;;5019962;28;90366;-33
2022/09/04 06:48:14;;;;;;;5.85;5.10;;;14.90;99.90;;;;;;5022561;28;90787;-33
2022/09/04 06:50:59;;;;;;;5.45;4.85;;;15.00;99.90;;;;;;5022198;27;90189;-33
2022/09/04 06:53:37;;;;;;;6.70;5.38;;;15.10;99.90;;;;;;5022127;27;90307;-31
2022/09/04 06:56:11;;;;;;;8.40;5.13;;;15.30;99.90;;;;;;5022135;28;89455;-30
2022/09/04 06:59:00;;;;;;;7.63;5.25;;;15.40;99.90;;;;;;5021672;27;89609;-34
2022/09/04 07:01:43;;;;;;;5.05;4.55;;;15.50;99.90;;;;;;5021572;28;87592;-31
2022/09/04 07:04:37;;;;;;;6.05;5.43;;;15.60;99.90;;;;;;5022430;28;90749;-31
2022/09/04 07:07:17;;;;;;;7.68;5.75;;;15.80;99.90;;;;;;5021319;27;89662;-32
2022/09/04 07:09:48;;;;;;;6.90;5.63;;;16.00;99.90;;;;;;5021481;27;89198;-32
2022/09/04 07:12:38;;;;;;;5.80;5.30;;;16.10;99.90;;;;;;5021079;28;89702;-32
2022/09/04 07:15:30;;;;;;;5.45;4.95;;;16.30;99.90;;;;;;5021794;28;89732;-31
2022/09/04 07:18:05;;;;;;;5.45;5.00;;;16.50;99.90;;;;;;4995699;28;90258;-33
2022/09/04 07:20:54;;;;;;;5.00;4.60;;;16.70;99.90;;;;;;5021745;27;89832;-33
2022/09/04 07:23:57;;;;;;;5.63;4.65;;;16.80;99.90;;;;;;5021935;28;88709;-34
2022/09/04 07:26:31;;;;;;;5.60;5.10;;;17.00;99.90;;;;;;5020988;28;90187;-35
2022/09/04 07:29:18;;;;;;;6.18;5.05;;;17.20;99.90;;;;;;5021442;27;90238;-31
2022/09/04 07:32:14;;;;;;;4.65;4.35;;;17.40;99.90;;;;;;5021709;27;89848;-32
2022/09/04 07:34:52;;;;;;;8.15;4.47;;;17.60;99.90;;;;;;5020803;28;89299;-34
2022/09/04 07:38:02;;;;;;;5.22;4.05;;;17.70;99.90;;;;;;5021440;27;89501;-32
2022/09/04 07:40:49;;;;;;;6.57;4.80;;;18.00;99.90;;;;;;4979253;28;90201;-31
2022/09/04 07:43:35;;;;;;;5.00;4.50;;;18.20;99.90;;;;;;5002036;28;90709;-31
2022/09/04 07:46:13;;;;;;;7.60;5.15;;;18.30;99.90;;;;;;5001778;28;89818;-31
2022/09/04 07:49:01;;;;;;;5.47;5.07;;;18.50;99.90;;;;;;5000434;28;90282;-33
2022/09/04 07:51:32;;;;;;;;;;;18.60;99.90;;;;;;5000623;28;90118;-35
2022/09/04 07:54:10;;;;;;;4.93;4.40;;;18.70;99.90;;;;;;5001788;28;88973;-35
2022/09/04 07:57:13;;;;;;;6.00;5.35;;;18.80;99.90;;;;;;5000959;28;89009;-33
2022/09/04 08:00:09;;;;;;;6.13;5.05;;;19.10;99.90;;;;;;5001347;28;90667;-32
2022/09/04 08:02:49;;;;;;;7.10;5.18;;;19.30;99.90;;;;;;5012828;28;89849;-34
2022/09/04 08:05:28;;;;;;;5.80;3.83;;;19.50;99.90;;;;;;5020961;28;89614;-31
2022/09/04 08:08:12;;;;;;;4.18;3.88;;;19.70;99.90;;;;;;5021205;27;89955;-31
2022/09/04 08:10:46;;;;;;;5.35;4.95;;;19.80;99.90;;;;;;5020891;28;89959;-30
2022/09/04 08:13:44;;;;;;;4.75;3.78;;;20.00;99.90;;;;;;5020494;28;88335;-32
2022/09/04 08:16:42;;;;;;;4.63;4.22;;;20.10;99.90;;;;;;5021422;27;90506;-29
2022/09/04 08:19:43;;;;;;;4.70;4.20;;;20.30;99.90;;;;;;5021647;27;88523;-33
2022/09/04 08:22:23;;;;;;;5.65;5.07;;;20.50;99.90;;;;;;5009931;28;89342;-34
2022/09/04 08:25:40;;;;;;;4.85;4.40;;;20.60;99.90;;;;;;5020347;27;89875;-32
2022/09/04 08:28:08;;;;;;;4.85;4.30;;;20.70;99.90;;;;;;5010438;27;89941;-32
2022/09/04 08:30:46;;;;;;;4.13;3.38;;;20.80;99.90;;;;;;5020649;27;88586;-33
2022/09/04 08:33:48;;;;;;;5.40;4.05;;;20.90;99.90;;;;;;5020510;27;90294;-35
2022/09/04 08:36:20;;;;;;;4.30;3.75;;;21.00;99.90;;;;;;5019195;27;90259;-33
2022/09/04 08:38:59;;;;;;;5.22;4.45;;;21.10;99.90;;;;;;5020693;27;91006;-32
2022/09/04 08:42:04;;;;;;;6.70;3.75;;;21.20;99.90;;;;;;5020610;27;90064;-32
2022/09/04 08:44:48;;;;;;;4.53;4.13;;;21.20;99.90;;;;;;5019716;27;89297;-33
2022/09/04 08:47:57;;;;;;;4.00;3.60;;;21.30;99.90;;;;;;5020089;27;88894;-31
2022/09/04 08:50:56;;;;;;;5.07;3.65;;;21.30;99.90;;;;;;5019171;28;88520;-31
2022/09/04 08:53:50;;;;;;;4.30;4.00;;;21.30;99.90;;;;;;5020116;28;88643;-34
2022/09/04 08:56:39;;;;;;;4.78;3.60;;;21.50;99.90;;;;;;5001023;27;90280;-31
2022/09/04 08:59:50;;;;;;;3.78;3.58;;;21.70;99.90;;;;;;5001385;27;89305;-34
2022/09/04 09:02:38;;;;;;;4.28;3.88;;;21.70;99.90;;;;;;5011149;27;89603;-34
2022/09/04 09:05:28;;;;;;;4.40;3.38;;;21.80;99.90;;;;;;4993209;28;89516;-33
2022/09/04 09:08:14;;;;;;;4.60;4.20;;;21.70;99.90;;;;;;4995806;28;90914;-32
2022/09/04 09:11:14;;;;;;;6.10;3.28;;;21.80;99.90;;;;;;4989055;28;90351;-34
2022/09/04 09:14:04;;;;;;;4.55;4.15;;;22.00;99.90;;;;;;4998990;28;89504;-32
2022/09/04 09:16:44;;;;;;;4.13;3.35;;;22.10;97.00;;;;;;4997355;28;88878;-32
2022/09/04 09:19:16;;;;;;;5.07;4.22;;;22.20;95.40;;;;;;4989753;28;89974;-32
2022/09/04 09:21:58;;;;;;;5.57;4.90;;;22.20;94.70;;;;;;4998433;28;89350;-33
2022/09/04 09:24:38;;;;;;;4.50;3.63;;;22.20;94.90;;;;;;4998881;28;91592;-32
2022/09/04 09:27:39;;;;;;;9.48;3.65;;;22.20;95.80;;;;;;4998865;28;89161;-32
2022/09/04 09:30:06;;;;;;;4.53;4.13;;;22.30;99.40;;;;;;4997789;28;90303;-34
2022/09/04 09:33:11;;;;;;;5.30;3.90;;;22.40;96.40;;;;;;4998039;28;90544;-33
2022/09/04 09:36:33;;;;;;;4.45;3.70;;;22.60;96.20;;;;;;4997713;28;90566;-32
2022/09/04 09:39:21;;;;;;;4.20;3.03;;;22.80;96.30;;;;;;4984672;28;89042;-33
2022/09/04 09:42:12;;;;;;;3.47;3.17;;;23.00;93.70;;;;;;4998175;28;89512;-34
2022/09/04 09:45:12;;;;;;;4.13;3.72;;;23.10;93.10;;;;;;4998186;28;89506;-34
2022/09/04 09:48:00;;;;;;;3.70;3.20;;;23.20;90.60;;;;;;4998285;28;88926;-31
2022/09/04 09:50:32;;;;;;;;;;;23.40;87.90;;;;;;4993855;28;87863;-31
2022/09/04 09:53:09;;;;;;;4.07;3.78;;;23.50;85.90;;;;;;4998732;28;91085;-32
2022/09/04 09:56:06;;;;;;;4.50;3.70;;;23.50;80.10;;;;;;4999479;28;88588;-31
2022/09/04 09:59:02;;;;;;;9.90;3.92;;;23.50;81.70;;;;;;5001500;28;89935;-35
2022/09/04 10:01:56;;;;;;;3.40;3.17;;;23.50;80.50;;;;;;5005860;28;89167;-35
2022/09/04 10:04:31;;;;;;;6.47;2.75;;;23.50;82.10;;;;;;5021069;27;90733;-35
2022/09/04 10:07:17;;;;;;;5.97;3.72;;;23.70;82.60;;;;;;5021280;27;89945;-34
2022/09/04 10:10:08;;;;;;;3.38;3.17;;;23.80;83.30;;;;;;5021947;27;90078;-35
2022/09/04 10:13:18;;;;;;;3.42;3.22;;;24.00;80.10;;;;;;5021987;27;89171;-33
2022/09/04 10:16:02;;;;;;;3.80;3.50;;;24.20;74.30;;;;;;5015983;27;90134;-35
2022/09/04 10:18:58;;;;;;;3.47;3.17;;;24.10;74.50;;;;;;5021177;28;89884;-34
2022/09/04 10:21:48;;;;;;;4.35;3.67;;;24.20;74.90;;;;;;5021368;27;89182;-35
2022/09/04 10:25:06;;;;;;;3.28;2.97;;;24.20;72.60;;;;;;5021672;27;88984;-34
2022/09/04 10:27:58;;;;;;;4.25;3.47;;;24.20;71.70;;;;;;5016279;27;90536;-35
2022/09/04 10:30:43;;;;;;;3.22;3.03;;;24.20;71.80;;;;;;5020939;27;90810;-32
2022/09/04 10:33:22;;;;;;;9.55;3.28;;;24.40;72.70;;;;;;5021431;27;90853;-35
2022/09/04 10:36:21;;;;;;;3.63;2.92;;;24.50;70.10;;;;;;5022127;27;89194;-32
2022/09/04 10:42:22;;;;;;;4.63;2.65;;;24.60;70.50;;;;;;5020351;27;88691;-37
2022/09/04 10:45:05;;;;;;;4.05;3.65;;;24.60;68.60;;;;;;5020657;28;90821;-35
2022/09/04 10:47:50;;;;;;;3.30;3.10;;;24.70;68.00;;;;;;5021923;28;88539;-33
2022/09/04 10:50:29;;;;;;;4.85;2.63;;;24.70;65.70;;;;;;5020632;28;90048;-33
2022/09/04 10:53:24;;;;;;;3.25;2.95;;;24.60;67.60;;;;;;5020398;28;90795;-32
2022/09/04 10:56:28;;;;;;;3.58;3.25;;;24.60;68.40;;;;;;5020850;27;89606;-34
2022/09/04 10:59:37;;;;;;;3.97;2.97;;;24.70;67.90;;;;;;5016501;28;89729;-36
2022/09/04 11:02:39;;;;;;;3.03;2.83;;;24.80;66.40;;;;;;5020268;27;89584;-33
2022/09/04 11:05:21;;;;;;;3.83;3.30;;;24.80;66.60;;;;;;5020290;28;89718;-32
2022/09/04 11:08:12;;;;;;;4.10;3.80;;;24.90;64.80;;;;;;5020066;28;89691;-36
2022/09/04 11:10:59;;;;;;;4.35;3.08;;;24.80;67.30;;;;;;5020448;27;89775;-32
2022/09/04 11:14:04;;;;;;;3.00;2.40;;;24.90;67.90;;;;;;5006051;28;90545;-36
2022/09/04 11:17:09;;;;;;;3.15;2.90;;;24.90;68.40;;;;;;5020593;27;89343;-32
2022/09/04 11:20:11;;;;;;;3.38;3.08;;;24.90;68.90;;;;;;5020109;27;89519;-32
2022/09/04 11:22:55;;;;;;;6.10;2.60;;;25.00;67.30;;;;;;5020990;27;89947;-36
2022/09/04 11:26:04;;;;;;;3.20;2.53;;;25.00;67.10;;;;;;5020414;27;90288;-33
2022/09/04 11:28:51;;;;;;;4.45;3.03;;;25.10;68.70;;;;;;5019636;27;90655;-33
2022/09/04 11:31:57;;;;;;;5.07;3.03;;;25.20;68.80;;;;;;5000812;27;90233;-34
2022/09/04 11:34:52;;;;;;;2.80;2.60;;;25.30;68.90;;;;;;4997784;28;90168;-33
2022/09/04 11:37:42;;;;;;;4.88;4.13;;;25.40;69.40;;;;;;4998506;28;89186;-33
2022/09/04 11:40:31;;;;;;;3.70;3.40;;;25.50;68.00;;;;;;4998037;28;89809;-33
2022/09/04 11:43:35;;;;;;;3.33;2.85;;;25.50;67.40;;;;;;4997688;28;90357;-34
2022/09/04 11:46:32;;;;;;;3.35;3.05;;;25.50;69.50;;;;;;4997412;28;88644;-34
2022/09/04 11:49:08;;;;;;;5.37;3.93;;;25.50;69.30;;;;;;4999076;28;90331;-31
2022/09/04 11:52:01;;;;;;;5.32;3.22;;;25.60;68.00;;;;;;4998484;28;90200;-33
2022/09/04 11:54:44;;;;;;;3.58;3.28;;;25.70;70.30;;;;;;4999818;28;89518;-32
2022/09/04 11:57:28;;;;;;;3.80;3.25;;;25.70;69.40;;;;;;4995619;28;88650;-33
2022/09/04 12:00:06;;;;;;;3.65;3.33;;;25.80;69.40;;;;;;4999494;28;90432;-33
2022/09/04 12:02:44;;;;;;;;;;;25.80;68.70;;;;;;5013805;28;88654;-35
2022/09/04 12:05:40;;;;;;;2.92;2.72;;;25.80;67.60;;;;;;4995812;28;90180;-34
2022/09/04 12:08:45;;;;;;;3.88;3.38;;;25.70;69.10;;;;;;5020331;27;90165;-33
2022/09/04 12:11:33;;;;;;;3.95;3.10;;;25.80;67.20;;;;;;5020223;27;89790;-32
2022/09/04 12:14:08;;;;;;;;;;;25.70;68.30;;;;;;5019979;27;89796;-32
2022/09/04 12:17:04;;;;;;;3.70;3.40;;;25.70;68.60;;;;;;5020684;27;89261;-35
2022/09/04 12:19:51;;;;;;;4.07;3.17;;;25.70;68.90;;;;;;5019195;27;88620;-34
2022/09/04 12:22:30;;;;;;;2.85;2.65;;;25.80;68.90;;;;;;5020237;28;90489;-32
2022/09/04 12:25:22;;;;;;;8.60;2.75;;;25.80;68.20;;;;;;5019061;28;90722;-36
2022/09/04 12:27:57;;;;;;;3.22;2.92;;;25.70;67.90;;;;;;5019338;28;91218;-34
2022/09/04 12:31:01;;;;;;;2.90;2.40;;;25.70;69.40;;;;;;5019721;28;88718;-35
2022/09/04 12:34:07;;;;;;;2.78;2.58;;;25.70;66.70;;;;;;5007350;22;90173;31
2022/09/04 12:36:58;;;;;;;7.57;3.40;;;25.70;68.60;;;;;;4918889;28;90969;-35
2022/09/04 12:39:47;;;;;;;3.33;3.03;;;25.70;67.70;;;;;;4921010;28;90038;-33
2022/09/04 12:42:29;;;;;;;3.42;3.20;;;25.80;70.00;;;;;;4920675;28;89929;-36
2022/09/04 12:45:08;;;;;;;3.50;3.20;;;25.90;66.30;;;;;;4920133;28;90698;-32
2022/09/04 12:47:47;;;;;;;2.75;2.65;;;25.80;66.80;;;;;;4920589;28;89678;-32
2022/09/04 12:50:34;;;;;;;2.85;2.65;;;25.70;67.80;;;;;;4919708;28;91845;-32
2022/09/04 12:53:13;;;;;;;3.10;2.42;;;25.70;68.20;;;;;;4919859;28;90790;-36
2022/09/04 12:56:05;;;;;;;3.03;2.83;;;25.70;69.70;;;;;;4920103;28;90061;-34
2022/09/04 12:59:00;;;;;;;4.80;3.50;;;25.80;67.80;;;;;;4909223;28;91213;-33
2022/09/04 13:01:59;;;;;;;3.50;2.90;;;25.90;66.20;;;;;;4919539;28;90342;-32
2022/09/04 13:04:42;;;;;;;3.88;3.03;;;25.90;67.00;;;;;;4920228;28;89100;-33
2022/09/04 13:07:35;;;;;;;3.45;3.03;;;25.80;67.10;;;;;;4921875;28;89347;-36
2022/09/04 13:10:19;;;;;;;3.60;3.33;;;25.90;68.70;;;;;;4920041;28;90158;-35
2022/09/04 13:13:01;;;;;;;3.90;3.03;;;26.00;65.90;;;;;;4920575;28;90460;-36
2022/09/04 13:15:52;;;;;;;4.32;2.92;;;25.90;66.20;;;;;;4919765;28;88667;-32
2022/09/04 13:18:39;;;;;;;3.63;3.38;;;25.90;65.90;;;;;;4919799;28;90101;-35
2022/09/04 13:21:37;;;;;;;2.83;2.58;;;26.00;65.10;;;;;;4919707;28;92104;-34
2022/09/04 13:24:02;;;;;;;;;;;26.00;65.50;;;;;;4920400;28;90529;-34
2022/09/04 13:26:34;;;;;;;4.07;3.67;;;26.10;65.30;;;;;;4920405;28;88648;-35
2022/09/04 13:29:15;;;;;;;3.75;3.33;;;26.20;64.70;;;;;;4919372;28;90373;-36
2022/09/04 13:31:54;;;;;;;3.13;2.90;;;26.30;63.80;;;;;;4919917;28;90445;-34
2022/09/04 13:34:52;;;;;;;3.53;3.22;;;26.20;65.40;;;;;;4925272;28;89925;-34
2022/09/04 13:37:19;;;;;;;;;;;26.20;63.30;;;;;;4939031;28;88476;-34
2022/09/04 13:40:03;;;;;;;3.38;3.08;;;26.10;63.50;;;;;;4940416;28;90883;-33
2022/09/04 13:43:13;;;;;;;3.28;2.97;;;26.00;64.30;;;;;;4939477;28;90105;-34
2022/09/04 13:45:49;;;;;;;4.43;3.55;;;26.00;64.90;;;;;;4938919;28;89574;-33
2022/09/04 13:48:36;;;;;;;3.67;3.28;;;26.00;65.50;;;;;;4938656;28;88992;-34
2022/09/04 13:51:09;;;;;;;4.60;2.92;;;26.00;65.40;;;;;;4938798;28;90615;-33
2022/09/04 13:53:50;;;;;;;3.03;2.83;;;26.10;65.30;;;;;;4939238;28;90060;-34
2022/09/04 13:56:25;;;;;;;3.00;2.80;;;26.20;64.30;;;;;;4938472;28;88509;-34
2022/09/04 13:58:56;;;;;;;7.95;2.65;;;26.10;62.60;;;;;;4939020;28;88189;-33
2022/09/04 14:01:28;;;;;;;5.72;3.45;;;26.10;63.50;;;;;;4938536;28;90326;-35
2022/09/04 14:03:58;;;;;;;3.85;3.55;;;26.20;63.80;;;;;;4938971;28;89695;-32
2022/09/04 14:06:28;;;;;;;3.20;3.00;;;26.20;63.50;;;;;;4938355;28;89691;-34
2022/09/04 14:08:56;;;;;;;3.22;3.03;;;26.20;63.20;;;;;;4938902;28;89090;-33
2022/09/04 14:11:37;;;;;;;3.08;2.88;;;26.20;64.40;;;;;;4939004;28;91418;-32
2022/09/04 14:14:12;;;;;;;4.32;3.22;;;26.20;64.50;;;;;;4928586;28;90113;-32
2022/09/04 14:16:40;;;;;;;3.97;3.78;;;26.30;62.90;;;;;;4938851;28;92317;-35
2022/09/04 14:19:39;;;;;;;5.82;2.95;;;26.20;62.80;;;;;;4938713;28;88403;-32
2022/09/04 14:22:36;;;;;;;3.40;3.20;;;26.20;62.70;;;;;;4938768;28;89487;-32
2022/09/04 14:25:35;;;;;;;3.97;2.80;;;26.20;62.60;;;;;;4938563;28;90389;-32
2022/09/04 14:28:25;;;;;;;3.15;2.83;;;26.10;64.60;;;;;;4939001;28;89470;-34
2022/09/04 14:30:50;;;;;;;3.53;3.22;;;26.00;64.50;;;;;;4938365;28;89804;-37
2022/09/04 14:33:42;;;;;;;2.72;2.53;;;26.10;64.10;;;;;;4938431;28;88939;-34